METAR Data
IDs: Format: Raw Decoded Include TAF

Data at: 1513 UTC 18 Aug 2019

PACM 181456Z AUTO 17005KT 10SM CLR 09/09 A3049 RMK AO2 SLP322 T00940089 58014
PACM 181356Z AUTO 00000KT 10SM FEW012 11/10 A3051 RMK AO2 SLP328 T01060100
PACM 181256Z AUTO 17003KT 10SM CLR 11/10 A3052 RMK AO2 SLP331 T01110100
PACM 181156Z AUTO 20003KT 10SM CLR 11/10 A3053 RMK AO2 SLP335 T01110100 10139 20106 56007
PACM 181056Z AUTO 00000KT 10SM CLR 11/10 A3054 RMK AO2 SLP337 T01110100
PACM 180956Z AUTO 00000KT 10SM CLR 11/09 A3055 RMK AO2 SLP341 T01060094
PACM 180856Z AUTO 00000KT 10SM CLR 12/09 A3055 RMK AO2 SLP342 T01170089 401720089 58001
PACM 180756Z AUTO 00000KT 10SM CLR 12/08 A3056 RMK AO2 SLP343 T01170083
PACM 180656Z AUTO 00000KT 10SM CLR 13/08 A3056 RMK AO2 SLP344 T01280078
PACM 180556Z AUTO 01006KT 10SM CLR 14/09 A3056 RMK AO2 SLP343 T01390089 10172 20139 58003
PACM 180456Z AUTO 01007KT 10SM CLR 16/08 A3056 RMK AO2 SLP344 T01560078
PACM 180356Z AUTO 01010KT 10SM CLR 16/08 A3057 RMK AO2 SLP346 T01610083
PACM 180256Z AUTO 01009KT 10SM CLR 17/08 A3057 RMK AO2 SLP346 T01720083 58007
PACM 180156Z AUTO 02010KT 10SM CLR 17/09 A3058 RMK AO2 SLP350 T01720089
PACM 180056Z AUTO 01008KT 10SM CLR 17/09 A3058 RMK AO2 SLP353 T01720089
PACM 172356Z AUTO 04010KT 10SM CLR 17/09 A3059 RMK AO2 SLP353 T01670094 10167 20117 58009
PACM 172256Z AUTO 03009KT 10SM CLR 16/09 A3060 RMK AO2 SLP359 T01560094
PACM 172156Z AUTO 36009KT 10SM CLR 16/10 A3061 RMK AO2 SLP362 T01560100
PACM 172056Z AUTO 04009KT 10SM FEW021 14/10 A3061 RMK AO2 SLP362 T01440100 50001
PACM 171956Z AUTO 04009KT 10SM CLR 13/09 A3062 RMK AO2 SLP363 T01330089
PACM 171856Z AUTO 05010KT 10SM CLR 13/09 A3062 RMK AO2 SLP364 T01280094
PACM 171756Z AUTO 05006KT 10SM FEW009 12/10 A3061 RMK AO2 SLP361 T01170100 10117 20089 51004
PACM 171656Z AUTO 09003KT 10SM CLR 11/10 A3061 RMK AO2 SLP361 T01110100
PACM 171556Z AUTO 00000KT 10SM CLR 10/09 A3060 RMK AO2 SLP359 T01000094
PACM 171456Z AUTO 00000KT 10SM CLR 10/09 A3060 RMK AO2 SLP357 T01000094 51006
PACM 171356Z AUTO 00000KT 10SM FEW019 09/09 A3060 RMK AO2 SLP357 T00940094
PACM 171256Z AUTO 00000KT 10SM CLR 09/09 A3059 RMK AO2 SLP354 T00940094
PACM 171156Z AUTO 00000KT 10SM CLR 10/10 A3058 RMK AO2 SLP352 70004 T01000100 10128 20094 50007
PACM 171056Z AUTO 00000KT 10SM FEW100 10/09 A3059 RMK AO2 SLP353 T01000094
PACM 171011Z AUTO 00000KT 10SM SCT018 11/09 A3058 RMK AO2
PACM 170956Z AUTO 00000KT 10SM BKN018 11/10 A3058 RMK AO2 SLP350 T01060100
PACM 170856Z AUTO 00000KT 10SM OVC016 11/11 A3056 RMK AO2 SLP345 T01110106 401440111 51011
PACM 170806Z AUTO 00000KT 10SM OVC016 12/11 A3056 RMK AO2
PACM 170756Z AUTO 34005KT 10SM OVC014 12/11 A3056 RMK AO2 SLP344 T01170106
PACM 170656Z AUTO 35003KT 10SM OVC012 12/12 A3054 RMK AO2 SLP338 T01220122
PACM 170635Z AUTO 02003KT 10SM BKN010 BKN013 OVC048 12/12 A3054 RMK AO2 CIG 006V011
PACM 170625Z AUTO 35003KT 10SM SCT008 BKN034 OVC070 12/12 A3054 RMK AO2
PACM 170610Z AUTO 36006KT 10SM BKN008 BKN032 OVC060 12/12 A3053 RMK AO2 CIG 005V010
PACM 170556Z AUTO 36005KT 10SM FEW008 SCT032 OVC065 13/13 A3053 RMK AO2 RAE27 SLP334 P0000 60002 T01280128 10139 20122 53008
PACM 170538Z AUTO 01006KT 10SM FEW006 BKN055 OVC070 13/13 A3052 RMK AO2 RAE27 P0000
PACM 170513Z AUTO 01006KT 10SM -RA FEW005 BKN023 OVC060 12/12 A3052 RMK AO2 P0000
PACM 170506Z AUTO 02006KT 9SM -RA BKN005 BKN023 OVC055 12/12 A3052 RMK AO2 CIG 004V010 P0000
PACM 170456Z AUTO 02008KT 10SM -RA BKN007 OVC060 12/12 A3051 RMK AO2 RAB16E32B55 SLP328 P0000 T01220122
PACM 170437Z AUTO 36009KT 10SM BKN007 OVC020 13/13 A3051 RMK AO2 RAB16E32 P0000
PACM 170415Z AUTO 36009KT 9SM SCT009 OVC020 13/13 A3051 RMK AO2
PACM 170356Z AUTO 35006KT 10SM BKN009 OVC019 13/13 A3051 RMK AO2 CIG 007V012 SLP326 T01330133